createdAt,value
2019-05-11T00:00:56.525Z,17.75
2019-05-11T00:05:59.599Z,24.30
2019-05-11T00:11:02.407Z,21.95
2019-05-11T00:16:05.416Z,21.77
2019-05-11T00:21:08.147Z,20.65
2019-05-11T00:26:10.815Z,19.20
2019-05-11T00:31:13.538Z,23.05
2019-05-11T00:36:16.513Z,21.10
2019-05-11T00:41:19.167Z,17.95
2019-05-11T00:46:21.843Z,18.25
2019-05-11T00:51:24.531Z,16.25
2019-05-11T00:56:27.289Z,20.85
2019-05-11T01:01:30.285Z,21.40
2019-05-11T01:06:32.949Z,16.50
2019-05-11T01:11:35.603Z,17.65
2019-05-11T01:16:38.279Z,19.98
2019-05-11T01:21:40.941Z,19.60
2019-05-11T01:26:43.623Z,18.12
2019-05-11T01:31:46.347Z,21.68
2019-05-11T01:36:49.084Z,19.30
2019-05-11T01:41:52.074Z,19.98
2019-05-11T01:46:54.737Z,17.00
2019-05-11T01:51:57.399Z,20.35
2019-05-11T01:57:00.067Z,19.95
2019-05-11T02:02:02.720Z,21.17
2019-05-11T02:07:05.757Z,19.00
2019-05-11T02:12:08.437Z,21.37
2019-05-11T02:17:11.101Z,22.25
2019-05-11T02:22:13.769Z,27.80
2019-05-11T02:27:16.498Z,25.40
2019-05-11T02:32:19.169Z,29.07
2019-05-11T02:37:21.824Z,24.82
2019-05-11T02:42:24.556Z,28.23
2019-05-11T02:47:27.238Z,28.87
2019-05-11T02:52:30.717Z,24.92
2019-05-11T02:57:33.456Z,26.87
2019-05-11T03:02:36.173Z,24.12
2019-05-11T03:07:38.849Z,29.55
2019-05-11T03:12:41.959Z,30.17
2019-05-11T03:17:45.057Z,30.32
2019-05-11T03:22:47.795Z,33.73
2019-05-11T03:27:50.537Z,36.03
2019-05-11T03:32:53.213Z,34.38
2019-05-11T03:37:56.248Z,29.95
2019-05-11T03:42:58.987Z,29.67
2019-05-11T03:48:01.653Z,30.68
2019-05-11T03:53:04.598Z,31.17
2019-05-11T03:58:07.331Z,28.70
2019-05-11T04:03:10.103Z,34.53
2019-05-11T04:08:12.871Z,30.80
2019-05-11T04:13:15.602Z,34.23
2019-05-11T04:18:18.275Z,34.35
2019-05-11T04:23:20.996Z,33.98
2019-05-11T04:28:23.659Z,32.30
2019-05-11T04:33:26.394Z,40.45
2019-05-11T04:38:29.144Z,38.28
2019-05-11T04:43:31.872Z,36.77
2019-05-11T04:48:34.625Z,40.43
2019-05-11T04:53:37.343Z,44.48
2019-05-11T04:58:40.021Z,42.95
2019-05-11T05:03:47.554Z,41.02
2019-05-11T05:08:47.127Z,41.23
2019-05-11T05:13:53.273Z,42.80
2019-05-11T05:18:54.218Z,48.10
2019-05-11T05:23:56.925Z,48.73
2019-05-11T05:28:59.600Z,46.18
2019-05-11T05:34:02.351Z,42.08
2019-05-11T05:39:08.797Z,49.30
2019-05-11T05:44:10.210Z,45.23
2019-05-11T05:49:12.946Z,47.65
2019-05-11T05:54:15.621Z,48.02
2019-05-11T05:59:18.290Z,48.10
2019-05-11T06:04:21.013Z,53.78
2019-05-11T06:09:23.683Z,58.17
2019-05-11T06:14:26.419Z,51.98
2019-05-11T06:19:29.117Z,54.58
2019-05-11T06:24:33.484Z,51.98
2019-05-11T06:29:36.142Z,55.03
2019-05-11T06:34:38.812Z,56.42
2019-05-11T06:39:41.486Z,60.98
2019-05-11T06:44:44.437Z,57.50
2019-05-11T06:49:47.161Z,55.33
2019-05-11T06:54:49.853Z,65.57
2019-05-11T06:59:52.947Z,59.98
2019-05-11T07:04:55.687Z,60.30
2019-05-11T07:09:58.349Z,57.10
2019-05-11T07:15:01.011Z,67.55
2019-05-11T07:20:05.623Z,57.70
2019-05-11T07:25:08.504Z,63.78
2019-05-11T07:30:11.786Z,65.47
2019-05-11T07:35:14.592Z,67.92
2019-05-11T07:40:18.758Z,61.73
2019-05-11T07:45:21.728Z,59.33
2019-05-11T07:50:24.466Z,60.12
2019-05-11T07:55:28.197Z,47.95
2019-05-11T08:00:31.181Z,40.63
2019-05-11T08:05:33.935Z,38.38
2019-05-11T08:10:38.844Z,36.17
2019-05-11T08:15:40.973Z,29.98
2019-05-11T08:20:43.703Z,32.95
2019-05-11T08:25:48.552Z,30.05
2019-05-11T08:30:50.827Z,26.90
2019-05-11T08:35:53.480Z,30.32
2019-05-11T08:40:56.228Z,30.50
2019-05-11T08:45:59.543Z,31.95
2019-05-11T08:51:02.216Z,28.27
2019-05-11T08:56:04.885Z,30.23
2019-05-11T09:01:08.819Z,30.32
2019-05-11T09:06:11.689Z,30.45
2019-05-11T09:11:14.422Z,23.75
2019-05-11T09:16:18.930Z,21.30
2019-05-11T09:21:21.541Z,21.60
2019-05-11T09:26:24.278Z,19.82
2019-05-11T09:31:27.915Z,18.20
2019-05-11T09:36:30.967Z,17.23
2019-05-11T09:41:33.679Z,19.17
2019-05-11T09:46:38.353Z,19.23
2019-05-11T09:51:40.738Z,17.35
2019-05-11T09:56:43.408Z,19.17
2019-05-11T10:01:48.151Z,16.12
2019-05-11T10:06:50.468Z,14.40
2019-05-11T10:11:53.197Z,14.10
2019-05-11T10:16:57.850Z,14.53
2019-05-11T10:22:00.255Z,11.57
2019-05-11T10:27:02.997Z,13.15
2019-05-11T10:32:07.771Z,11.95
2019-05-11T10:37:10.108Z,14.30
2019-05-11T10:42:12.781Z,11.60
2019-05-11T10:47:15.447Z,11.88
2019-05-11T10:52:18.211Z,12.55
2019-05-11T10:57:20.991Z,11.83
2019-05-11T11:02:23.653Z,11.83
2019-05-11T11:07:28.626Z,15.35
2019-05-11T11:12:30.764Z,11.73
2019-05-11T11:17:33.505Z,12.82
2019-05-11T11:22:42.820Z,11.05
2019-05-11T11:27:40.561Z,8.53
2019-05-11T11:32:43.287Z,12.28
2019-05-11T11:37:47.884Z,12.47
2019-05-11T11:42:50.387Z,8.55
2019-05-11T11:47:53.400Z,12.95
2019-05-11T11:52:57.897Z,11.18
2019-05-11T11:58:00.648Z,9.30
2019-05-11T12:03:03.455Z,11.63
2019-05-11T12:08:08.118Z,8.38
2019-05-11T12:13:10.587Z,14.68
2019-05-11T12:18:13.258Z,7.78
2019-05-11T12:23:17.827Z,5.92
2019-05-11T12:28:20.325Z,6.12
2019-05-11T12:33:22.984Z,8.93
2019-05-11T12:38:27.664Z,6.72
2019-05-11T12:43:30.058Z,8.28
2019-05-11T12:48:32.714Z,8.05
2019-05-11T12:53:35.390Z,5.60
2019-05-11T12:58:39.575Z,10.55
2019-05-11T13:03:42.502Z,4.10
2019-05-11T13:08:45.289Z,4.00
2019-05-11T13:13:48.543Z,6.85
2019-05-11T13:18:51.310Z,6.70
2019-05-11T13:23:54.049Z,5.72
2019-05-11T13:28:58.395Z,6.05
2019-05-11T13:34:01.242Z,6.03
2019-05-11T13:39:05.738Z,10.45
2019-05-11T13:44:08.398Z,4.50
2019-05-11T13:49:11.130Z,4.75
2019-05-11T13:54:13.814Z,5.30
2019-05-11T13:59:18.565Z,7.33
2019-05-11T14:04:20.877Z,4.37
2019-05-11T14:09:23.615Z,9.18
2019-05-11T14:14:28.723Z,6.65
2019-05-11T14:19:32.024Z,4.67
2019-05-11T14:24:34.774Z,3.98
2019-05-11T14:29:38.593Z,7.10
2019-05-11T14:34:41.423Z,4.90
2019-05-11T14:39:44.440Z,5.05
2019-05-11T14:44:48.264Z,7.03
2019-05-11T14:49:51.056Z,5.55
2019-05-11T14:54:53.722Z,7.03
2019-05-11T14:59:58.468Z,8.60
2019-05-11T15:05:00.773Z,6.78
2019-05-11T15:10:07.890Z,5.55
2019-05-11T15:15:11.057Z,9.13
2019-05-11T15:20:14.599Z,5.90
2019-05-11T15:25:19.311Z,5.80
2019-05-11T15:30:22.669Z,5.70
2019-05-11T15:35:25.335Z,4.90
2019-05-11T15:40:28.126Z,6.05
2019-05-11T15:45:31.095Z,7.75
2019-05-11T15:50:33.832Z,7.85
2019-05-11T15:55:39.370Z,6.67
2019-05-11T16:00:41.016Z,7.92
2019-05-11T16:05:44.213Z,6.53
2019-05-11T16:10:48.920Z,9.38
2019-05-11T16:15:51.335Z,10.15
2019-05-11T16:20:53.995Z,10.43
2019-05-11T16:25:58.066Z,8.38
2019-05-11T16:31:01.019Z,8.48
2019-05-11T16:36:03.742Z,11.35
2019-05-11T16:41:08.915Z,9.55
2019-05-11T16:46:10.846Z,9.63
2019-05-11T16:51:13.505Z,9.45
2019-05-11T16:56:16.155Z,8.25
2019-05-11T17:01:18.989Z,7.85
2019-05-11T17:06:21.852Z,8.45
2019-05-11T17:11:24.514Z,10.13
2019-05-11T17:16:28.509Z,13.13
2019-05-11T17:21:31.829Z,12.85
2019-05-11T17:26:34.482Z,13.22
2019-05-11T17:31:38.002Z,7.75
2019-05-11T17:36:40.844Z,10.45
2019-05-11T17:41:43.603Z,14.43
2019-05-11T17:46:46.644Z,8.88
2019-05-11T17:51:52.043Z,12.73
2019-05-11T17:56:53.756Z,9.18
2019-05-11T18:01:58.052Z,10.00
2019-05-11T18:07:00.900Z,9.78
2019-05-11T18:12:03.621Z,7.00
2019-05-11T18:17:06.369Z,10.43
2019-05-11T18:22:09.422Z,9.98
2019-05-11T18:27:12.091Z,10.98
2019-05-11T18:32:15.123Z,8.73
2019-05-11T18:37:18.689Z,10.30
2019-05-11T18:42:22.231Z,7.60
2019-05-11T18:47:24.887Z,11.53
2019-05-11T18:52:27.572Z,8.08
2019-05-11T18:57:30.250Z,9.20
2019-05-11T19:02:32.970Z,8.55
2019-05-11T19:07:35.698Z,9.68
2019-05-11T19:12:38.434Z,10.82
2019-05-11T19:17:42.522Z,11.78
2019-05-11T19:22:45.305Z,12.35
2019-05-11T19:27:50.590Z,9.33
2019-05-11T19:32:52.436Z,9.80
2019-05-11T19:37:55.090Z,5.90
2019-05-11T19:42:59.112Z,13.88
2019-05-11T19:48:02.454Z,9.45
2019-05-11T19:53:05.201Z,7.92
2019-05-11T19:58:07.954Z,11.65
2019-05-11T20:03:10.688Z,6.87
2019-05-11T20:08:13.442Z,8.85
2019-05-11T20:13:17.960Z,7.95
2019-05-11T20:18:20.746Z,11.05
2019-05-11T20:23:23.421Z,10.63
2019-05-11T20:28:28.308Z,8.55
2019-05-11T20:33:30.867Z,8.35
2019-05-11T20:38:33.605Z,7.80
2019-05-11T20:43:36.411Z,7.72
2019-05-11T20:48:39.139Z,8.20
2019-05-11T20:53:41.839Z,5.80
2019-05-11T20:58:44.502Z,9.75
2019-05-11T21:03:48.641Z,7.30
2019-05-11T21:08:51.448Z,9.50
2019-05-11T21:13:54.115Z,5.60
2019-05-11T21:18:58.046Z,9.63
2019-05-11T21:24:00.827Z,11.55
2019-05-11T21:29:03.557Z,10.60
2019-05-11T21:34:08.213Z,9.28
2019-05-11T21:39:10.681Z,8.95
2019-05-11T21:44:13.435Z,9.63
2019-05-11T21:49:18.277Z,9.43
2019-05-11T21:54:20.483Z,12.13
2019-05-11T21:59:23.265Z,11.08
2019-05-11T22:04:28.237Z,11.78
2019-05-11T22:09:30.398Z,9.78
2019-05-11T22:14:33.122Z,11.08
2019-05-11T22:19:35.845Z,12.20
2019-05-11T22:24:38.850Z,5.90
2019-05-11T22:29:41.513Z,6.40
2019-05-11T22:34:44.247Z,11.85
2019-05-11T22:39:49.054Z,15.18
2019-05-11T22:44:51.283Z,8.28
2019-05-11T22:49:54.277Z,9.23
2019-05-11T22:54:58.913Z,8.93
2019-05-11T23:00:01.812Z,11.93
2019-05-11T23:05:08.440Z,8.93
2019-05-11T23:10:11.833Z,14.33
2019-05-11T23:15:14.699Z,12.40
2019-05-11T23:20:19.060Z,7.87
2019-05-11T23:25:21.737Z,7.37
2019-05-11T23:30:24.463Z,9.23
2019-05-11T23:35:28.527Z,9.38
2019-05-11T23:40:31.785Z,7.33
2019-05-11T23:45:34.445Z,9.75
2019-05-11T23:50:38.605Z,9.98
2019-05-11T23:55:41.511Z,9.05
